createdAt,value
2023-03-23T15:58:14.019Z,97413.00
2023-03-23T16:00:50.886Z,97411.00
2023-03-23T16:03:37.760Z,97428.00
2023-03-23T16:06:25.298Z,97417.00
2023-03-23T16:09:01.353Z,97419.00
2023-03-23T16:11:36.413Z,97422.00
2023-03-23T16:14:11.644Z,97408.00
2023-03-23T16:16:52.762Z,97419.00
2023-03-23T16:19:27.710Z,97406.00
2023-03-23T16:22:02.539Z,97423.00
2023-03-23T16:24:37.429Z,97418.00
2023-03-23T16:27:13.126Z,97426.00
2023-03-23T16:30:02.801Z,97428.00
2023-03-23T16:35:12.564Z,97431.00
2023-03-23T16:37:51.938Z,97436.00
2023-03-23T16:40:45.743Z,97429.00
2023-03-23T16:43:21.649Z,97442.00
2023-03-23T16:45:58.804Z,97433.00
2023-03-23T16:48:34.152Z,97435.00
2023-03-23T16:51:09.346Z,97429.00
2023-03-23T16:53:44.451Z,97433.00
2023-03-23T16:56:19.399Z,97425.00
2023-03-23T16:58:54.361Z,97445.00
2023-03-23T17:01:29.327Z,97434.00
2023-03-23T17:04:04.601Z,97434.00
2023-03-23T17:06:39.467Z,97429.00
2023-03-23T17:09:14.309Z,97423.00
2023-03-23T17:11:49.490Z,97415.00
2023-03-23T17:14:24.441Z,97427.00
2023-03-23T17:16:59.719Z,97413.00
2023-03-23T17:19:35.230Z,97406.00
2023-03-23T17:22:10.524Z,97399.00
2023-03-23T17:24:47.636Z,97408.00
2023-03-23T17:27:23.258Z,97405.00
2023-03-23T17:29:58.190Z,97405.00
2023-03-23T17:32:58.262Z,97415.00
2023-03-23T17:35:33.160Z,97416.00
2023-03-23T17:38:08.099Z,97409.00
2023-03-23T17:40:43.780Z,97418.00
2023-03-23T17:43:18.599Z,97412.00
2023-03-23T17:45:53.659Z,97411.00
2023-03-23T17:48:28.551Z,97408.00
2023-03-23T17:51:04.032Z,97408.00
2023-03-23T17:53:39.065Z,97405.00
2023-03-23T17:56:14.250Z,97411.00
2023-03-23T17:58:49.155Z,97409.00
2023-03-23T18:01:24.296Z,97411.00
2023-03-23T18:03:59.274Z,97413.00
2023-03-23T18:06:34.319Z,97408.00
2023-03-23T18:09:09.990Z,97412.00
2023-03-23T18:11:44.930Z,97409.00
2023-03-23T18:14:20.809Z,97418.00
2023-03-23T18:16:55.971Z,97416.00
2023-03-23T18:19:31.242Z,97410.00
2023-03-23T18:22:06.214Z,97403.00
2023-03-23T18:24:41.199Z,97404.00
2023-03-23T18:27:16.109Z,97406.00
2023-03-23T18:29:51.147Z,97414.00
2023-03-23T18:32:27.617Z,97418.00
2023-03-23T18:35:04.184Z,97398.00
2023-03-23T18:37:39.445Z,97407.00
2023-03-23T18:40:15.693Z,97396.00
2023-03-23T18:42:50.870Z,97406.00
2023-03-23T18:45:26.269Z,97408.00
2023-03-23T18:48:01.310Z,97408.00
2023-03-23T18:50:36.511Z,97408.00
2023-03-23T18:53:14.488Z,97407.00
2023-03-23T18:55:51.298Z,97407.00
2023-03-23T18:58:26.402Z,97421.00
2023-03-23T19:01:11.127Z,97415.00
2023-03-23T19:03:46.448Z,97423.00
2023-03-23T19:06:25.382Z,97432.00
2023-03-23T19:09:00.347Z,97428.00
2023-03-23T19:11:35.275Z,97429.00
2023-03-23T19:14:10.370Z,97424.00
2023-03-23T19:16:45.570Z,97434.00
2023-03-23T19:19:20.846Z,97425.00
2023-03-23T19:21:55.842Z,97425.00
2023-03-23T19:24:31.065Z,97428.00
2023-03-23T19:27:05.996Z,97425.00
2023-03-23T19:29:41.100Z,97419.00
2023-03-23T19:32:16.976Z,97429.00
2023-03-23T19:34:52.300Z,97429.00
2023-03-23T19:37:27.347Z,97420.00
2023-03-23T19:40:09.523Z,97428.00
2023-03-23T19:42:52.782Z,97428.00
2023-03-23T19:45:28.045Z,97429.00
2023-03-23T19:48:03.109Z,97425.00
2023-03-23T19:50:39.835Z,97437.00
2023-03-23T19:53:14.846Z,97429.00
2023-03-23T19:55:50.508Z,97422.00
2023-03-23T19:58:27.137Z,97419.00
2023-03-23T20:01:02.124Z,97417.00
2023-03-23T20:03:37.530Z,97419.00
2023-03-23T20:06:15.175Z,97415.00
2023-03-23T20:08:50.411Z,97412.00
2023-03-23T20:11:25.333Z,97416.00
2023-03-23T20:14:02.055Z,97414.00
2023-03-23T20:16:37.594Z,97408.00
2023-03-23T20:19:12.556Z,97409.00
2023-03-23T20:21:47.476Z,97398.00
2023-03-23T20:24:22.399Z,97404.00
2023-03-23T20:26:57.267Z,97409.00
2023-03-23T20:29:33.557Z,97399.00
2023-03-23T20:32:09.740Z,97401.00
2023-03-23T20:34:49.134Z,97392.00
2023-03-23T20:37:25.941Z,97397.00
2023-03-23T20:40:11.396Z,97395.00
2023-03-23T20:42:48.237Z,97395.00
2023-03-23T20:45:23.787Z,97390.00
2023-03-23T20:48:02.095Z,97386.00
2023-03-23T20:50:37.208Z,97381.00
2023-03-23T20:53:12.531Z,97381.00
2023-03-23T20:55:47.801Z,97382.00
2023-03-23T20:58:23.084Z,97392.00
2023-03-23T21:01:01.263Z,97378.00
2023-03-23T21:03:40.922Z,97388.00
2023-03-23T21:06:16.666Z,97383.00
2023-03-23T21:08:52.516Z,97379.00
2023-03-23T21:11:27.687Z,97386.00
2023-03-23T21:14:04.645Z,97379.00
2023-03-23T21:16:41.242Z,97388.00
2023-03-23T21:19:17.010Z,97379.00
2023-03-23T21:21:55.722Z,97375.00
2023-03-23T21:24:32.275Z,97379.00
2023-03-23T21:27:07.502Z,97377.00
2023-03-23T21:29:42.699Z,97370.00
2023-03-23T21:32:17.619Z,97369.00
2023-03-23T21:34:52.963Z,97359.00
2023-03-23T21:37:29.111Z,97359.00
2023-03-23T21:40:13.138Z,97354.00
2023-03-23T21:42:49.274Z,97336.00
2023-03-23T21:45:25.533Z,97342.00
2023-03-23T21:48:00.506Z,97338.00
2023-03-23T21:50:37.638Z,97328.00
2023-03-23T21:53:12.868Z,97324.00
2023-03-23T21:55:52.823Z,97327.00
2023-03-23T21:58:27.779Z,97321.00
2023-03-23T22:01:03.828Z,97320.00
2023-03-23T22:03:40.241Z,97314.00
2023-03-23T22:06:26.090Z,97312.00
2023-03-23T22:09:05.196Z,97298.00
2023-03-23T22:11:41.399Z,97298.00
2023-03-23T22:14:16.394Z,97291.00
2023-03-23T22:16:51.515Z,97290.00
2023-03-23T22:19:26.795Z,97287.00
2023-03-23T22:22:03.961Z,97281.00
2023-03-23T22:24:38.828Z,97269.00
2023-03-23T22:27:14.093Z,97272.00
2023-03-23T22:29:49.066Z,97273.00
2023-03-23T22:32:24.270Z,97249.00
2023-03-23T22:34:59.418Z,97253.00
2023-03-23T22:37:34.331Z,97247.00
2023-03-23T22:40:11.432Z,97234.00
2023-03-23T22:42:46.487Z,97231.00
2023-03-23T22:45:23.419Z,97214.00
2023-03-23T22:47:59.796Z,97218.00
2023-03-23T22:50:34.869Z,97226.00
2023-03-23T22:53:09.829Z,97224.00
2023-03-23T22:55:48.156Z,97219.00
2023-03-23T22:58:25.446Z,97216.00
2023-03-23T23:01:08.698Z,97216.00
2023-03-23T23:03:44.580Z,97215.00
2023-03-23T23:06:20.555Z,97209.00
2023-03-23T23:08:55.581Z,97210.00
2023-03-23T23:11:31.332Z,97220.00
2023-03-23T23:14:06.605Z,97223.00
2023-03-23T23:16:42.225Z,97221.00
2023-03-23T23:19:17.741Z,97221.00
2023-03-23T23:21:54.965Z,97218.00
2023-03-23T23:24:29.867Z,97218.00
2023-03-23T23:27:04.778Z,97227.00
2023-03-23T23:29:40.557Z,97225.00
2023-03-23T23:32:16.955Z,97233.00
2023-03-23T23:34:52.747Z,97241.00
2023-03-23T23:37:27.840Z,97235.00
2023-03-23T23:40:02.858Z,97241.00
2023-03-23T23:42:37.766Z,97245.00
2023-03-23T23:45:14.279Z,97254.00
2023-03-23T23:47:49.220Z,97266.00
2023-03-23T23:50:24.113Z,97259.00
2023-03-23T23:52:59.044Z,97253.00
2023-03-23T23:55:33.949Z,97234.00
2023-03-23T23:58:08.820Z,97232.00
